Indialantic, Florida
Current Conditions -  °F | °C
As of 6:53 PM on Monday 22 Dec 2014 (Local Time) from KMLB Reporting Station
Clear Clear  
Wind Chill: 75°   Ceiling: Unl
Heat Index: 75°   Visibility: 10mi
Dew Point: 66°   Wind: 3mph
Humidity: 73%   Direction: 150°SSE
Pressure: 29.94"   Gusts: NA
Location:  28.09°N, 80.57°W
Report Text: KMLB 222353Z 15003KT 10SM CLR 24/19 A2994 RMK AO2 SLP138 T02390189 10283 20239 53008
Loading
Personal Weather Stations






























Interactive Weather Map New forecast layout! Learn more

10-Day Weather Forecast

Advertisements
Track Severe Weather on mobile